createdAt,value
2022-08-23T00:02:26.830Z,99.90
2022-08-23T00:05:07.569Z,99.90
2022-08-23T00:07:41.583Z,99.90
2022-08-23T00:10:10.246Z,99.90
2022-08-23T00:12:38.845Z,99.90
2022-08-23T00:15:07.266Z,99.90
2022-08-23T00:17:35.643Z,99.90
2022-08-23T00:20:05.108Z,99.90
2022-08-23T00:22:32.283Z,99.90
2022-08-23T00:24:59.461Z,99.90
2022-08-23T00:27:26.915Z,99.90
2022-08-23T00:29:54.723Z,99.90
2022-08-23T00:32:24.442Z,99.90
2022-08-23T00:34:51.690Z,99.90
2022-08-23T00:37:19.047Z,99.90
2022-08-23T00:39:46.641Z,99.90
2022-08-23T00:42:51.532Z,99.90
2022-08-23T00:45:41.143Z,99.90
2022-08-23T00:48:08.419Z,99.90
2022-08-23T00:50:47.493Z,99.90
2022-08-23T00:53:28.334Z,99.90
2022-08-23T00:55:59.418Z,99.90
2022-08-23T00:58:26.685Z,99.90
2022-08-23T01:00:56.453Z,99.90
2022-08-23T01:03:25.003Z,99.90
2022-08-23T01:06:13.706Z,99.90
2022-08-23T01:08:45.513Z,99.90
2022-08-23T01:11:40.501Z,99.90
2022-08-23T01:14:22.458Z,99.90
2022-08-23T01:16:52.501Z,99.90
2022-08-23T01:19:31.830Z,99.90
2022-08-23T01:22:34.206Z,99.90
2022-08-23T01:25:08.321Z,99.90
2022-08-23T01:27:41.928Z,99.90
2022-08-23T01:30:17.770Z,99.90
2022-08-23T01:32:50.768Z,99.90
2022-08-23T01:37:51.306Z,99.90
2022-08-23T01:40:18.667Z,99.90
2022-08-23T01:42:47.142Z,99.90
2022-08-23T01:45:14.789Z,99.90
2022-08-23T01:47:42.248Z,99.90
2022-08-23T01:50:10.183Z,99.90
2022-08-23T01:52:37.821Z,99.90
2022-08-23T01:55:14.124Z,99.90
2022-08-23T01:57:41.882Z,99.90
2022-08-23T02:00:09.824Z,99.90
2022-08-23T02:02:41.294Z,99.90
2022-08-23T02:05:09.348Z,99.90
2022-08-23T02:07:36.892Z,99.90
2022-08-23T02:10:07.121Z,99.90
2022-08-23T02:12:35.712Z,99.90
2022-08-23T02:15:11.539Z,99.90
2022-08-23T02:17:42.449Z,99.90
2022-08-23T02:20:09.909Z,99.90
2022-08-23T02:22:38.828Z,99.90
2022-08-23T02:25:07.063Z,99.90
2022-08-23T02:27:34.288Z,99.90
2022-08-23T02:30:02.129Z,99.90
2022-08-23T02:32:30.134Z,99.90
2022-08-23T02:35:05.251Z,99.90
2022-08-23T02:37:34.286Z,99.90
2022-08-23T02:40:02.249Z,99.90
2022-08-23T02:42:29.922Z,99.90
2022-08-23T02:44:57.123Z,99.90
2022-08-23T02:47:24.437Z,99.90
2022-08-23T02:50:07.108Z,99.90
2022-08-23T02:52:34.778Z,99.90
2022-08-23T02:55:02.178Z,99.90
2022-08-23T02:57:31.607Z,99.90
2022-08-23T03:00:01.971Z,99.90
2022-08-23T03:02:31.325Z,99.90
2022-08-23T03:04:58.679Z,99.90
2022-08-23T03:07:26.205Z,99.90
2022-08-23T03:09:53.413Z,99.90
2022-08-23T03:12:20.655Z,99.90
2022-08-23T03:14:53.298Z,99.90
2022-08-23T03:17:20.599Z,99.90
2022-08-23T03:19:48.579Z,99.90
2022-08-23T03:22:15.790Z,99.90
2022-08-23T03:24:42.973Z,99.90
2022-08-23T03:27:10.999Z,99.90
2022-08-23T03:29:38.801Z,99.90
2022-08-23T03:32:06.306Z,99.90
2022-08-23T03:34:37.107Z,99.90
2022-08-23T03:37:06.849Z,99.90
2022-08-23T03:39:34.380Z,99.90
2022-08-23T03:42:01.744Z,99.90
2022-08-23T03:44:33.017Z,99.90
2022-08-23T03:47:00.223Z,99.90
2022-08-23T03:49:27.869Z,99.90
2022-08-23T03:51:57.366Z,99.90
2022-08-23T03:54:24.863Z,99.90
2022-08-23T03:56:56.529Z,99.90
2022-08-23T03:59:24.602Z,99.90
2022-08-23T04:01:51.887Z,99.90
2022-08-23T04:04:19.228Z,99.90
2022-08-23T04:07:09.755Z,99.90
2022-08-23T04:09:37.411Z,99.90
2022-08-23T04:12:04.849Z,99.90
2022-08-23T04:14:45.931Z,99.90
2022-08-23T04:17:14.480Z,99.90
2022-08-23T04:19:42.348Z,99.90
2022-08-23T04:22:13.863Z,99.90
2022-08-23T04:24:42.358Z,99.90
2022-08-23T04:27:10.482Z,99.90
2022-08-23T04:29:39.848Z,99.90
2022-08-23T04:32:09.800Z,99.90
2022-08-23T04:34:45.510Z,99.90
2022-08-23T04:37:14.288Z,99.90
2022-08-23T04:40:00.061Z,99.90
2022-08-23T04:42:34.115Z,99.90
2022-08-23T04:45:01.675Z,99.90
2022-08-23T04:47:29.449Z,99.90
2022-08-23T04:49:59.726Z,99.90
2022-08-23T04:52:26.917Z,99.90
2022-08-23T04:54:54.271Z,99.90
2022-08-23T04:57:37.061Z,99.90
2022-08-23T05:00:04.894Z,99.90
2022-08-23T05:02:32.568Z,99.90
2022-08-23T05:05:00.371Z,99.90
2022-08-23T05:07:41.859Z,99.90
2022-08-23T05:10:12.693Z,99.90
2022-08-23T05:12:42.405Z,99.90
2022-08-23T05:15:10.242Z,99.90
2022-08-23T05:17:40.291Z,99.90
2022-08-23T05:20:08.574Z,99.90
2022-08-23T05:22:37.208Z,99.90
2022-08-23T05:25:23.282Z,99.90
2022-08-23T05:27:56.491Z,99.90
2022-08-23T05:30:23.741Z,99.90
2022-08-23T05:32:50.965Z,99.90
2022-08-23T05:35:18.235Z,99.90
2022-08-23T05:37:46.836Z,99.90
2022-08-23T05:40:14.618Z,99.90
2022-08-23T05:42:55.216Z,99.90
2022-08-23T05:45:22.443Z,99.90
2022-08-23T05:47:50.833Z,99.90
2022-08-23T05:50:28.580Z,99.90
2022-08-23T05:52:55.764Z,99.90
2022-08-23T05:55:27.628Z,99.90
2022-08-23T05:58:19.474Z,99.90
2022-08-23T06:00:46.968Z,99.90
2022-08-23T06:03:14.930Z,99.90
2022-08-23T06:05:42.234Z,99.90
2022-08-23T06:08:11.099Z,99.90
2022-08-23T06:10:42.143Z,99.90
2022-08-23T06:13:41.114Z,99.90
2022-08-23T06:16:15.105Z,99.90
2022-08-23T06:18:44.558Z,99.90
2022-08-23T06:21:30.716Z,99.90
2022-08-23T06:23:57.932Z,99.90
2022-08-23T06:26:38.131Z,99.90
2022-08-23T06:29:08.833Z,99.90
2022-08-23T06:31:47.481Z,99.90
2022-08-23T06:34:33.236Z,99.90
2022-08-23T06:37:10.317Z,99.90
2022-08-23T06:39:58.221Z,99.90
2022-08-23T06:42:58.295Z,99.90
2022-08-23T06:45:52.381Z,99.90
2022-08-23T06:48:25.687Z,99.90
2022-08-23T06:50:53.327Z,99.90
2022-08-23T06:53:36.398Z,99.90
2022-08-23T06:56:17.083Z,99.90
2022-08-23T06:59:06.441Z,99.90
2022-08-23T07:01:56.770Z,99.90
2022-08-23T07:04:43.859Z,99.90
2022-08-23T07:07:37.655Z,99.90
2022-08-23T07:10:13.333Z,99.90
2022-08-23T07:12:42.331Z,99.90
2022-08-23T07:15:11.980Z,99.90
2022-08-23T07:17:40.774Z,99.90
2022-08-23T07:20:08.342Z,99.90
2022-08-23T07:22:38.198Z,99.90
2022-08-23T07:25:05.990Z,99.90
2022-08-23T07:27:35.008Z,99.90
2022-08-23T07:30:05.555Z,99.90
2022-08-23T07:32:32.882Z,99.90
2022-08-23T07:35:09.009Z,99.90
2022-08-23T07:37:39.108Z,99.90
2022-08-23T07:40:20.590Z,99.90
2022-08-23T07:42:58.117Z,99.90
2022-08-23T07:45:28.794Z,99.90
2022-08-23T07:48:02.023Z,99.90
2022-08-23T07:50:33.725Z,99.90
2022-08-23T07:53:03.514Z,99.90
2022-08-23T07:55:31.106Z,99.90
2022-08-23T07:58:07.845Z,99.90
2022-08-23T08:00:47.030Z,99.90
2022-08-23T08:03:32.694Z,99.90
2022-08-23T08:06:19.830Z,99.90
2022-08-23T08:08:48.182Z,99.90
2022-08-23T08:11:16.822Z,99.90
2022-08-23T08:13:49.104Z,99.90
2022-08-23T08:16:29.768Z,99.90
2022-08-23T08:18:59.228Z,99.90
2022-08-23T08:21:47.187Z,99.90
2022-08-23T08:24:34.640Z,99.90
2022-08-23T08:27:06.390Z,99.90
2022-08-23T08:29:34.715Z,99.90
2022-08-23T08:32:02.152Z,99.90
2022-08-23T08:34:29.385Z,99.90
2022-08-23T08:37:00.171Z,99.90
2022-08-23T08:39:31.535Z,99.90
2022-08-23T08:42:10.310Z,99.90
2022-08-23T08:44:45.897Z,99.90
2022-08-23T08:47:35.605Z,99.90
2022-08-23T08:50:05.981Z,99.90
2022-08-23T08:52:34.716Z,99.90
2022-08-23T08:55:12.911Z,99.90
2022-08-23T08:57:42.996Z,99.90
2022-08-23T09:00:13.760Z,99.90
2022-08-23T09:02:43.364Z,99.90
2022-08-23T09:05:16.855Z,99.90
2022-08-23T09:08:09.387Z,99.90
2022-08-23T09:10:58.945Z,99.90
2022-08-23T09:13:38.279Z,99.90
2022-08-23T09:16:24.608Z,99.90
2022-08-23T09:18:54.560Z,99.90
2022-08-23T09:21:22.347Z,99.90
2022-08-23T09:24:00.588Z,99.90
2022-08-23T09:26:39.046Z,99.90
2022-08-23T09:29:30.177Z,99.90
2022-08-23T09:32:04.718Z,99.90
2022-08-23T09:34:37.300Z,99.90
2022-08-23T09:37:11.542Z,99.90
2022-08-23T09:39:41.859Z,99.90
2022-08-23T09:42:33.448Z,99.90
2022-08-23T09:45:01.167Z,99.90
2022-08-23T09:47:44.144Z,99.60
2022-08-23T09:50:23.119Z,99.20
2022-08-23T09:52:50.727Z,97.80
2022-08-23T09:55:32.120Z,97.60
2022-08-23T09:58:00.970Z,96.40
2022-08-23T10:00:30.878Z,96.40
2022-08-23T10:03:19.434Z,95.90
2022-08-23T10:05:50.911Z,95.60
2022-08-23T10:08:24.254Z,94.80
2022-08-23T10:11:02.741Z,96.40
2022-08-23T10:13:40.821Z,97.30
2022-08-23T10:16:36.918Z,97.10
2022-08-23T10:19:21.791Z,98.30
2022-08-23T10:21:55.852Z,98.30
2022-08-23T10:24:45.056Z,97.20
2022-08-23T10:27:49.859Z,96.10
2022-08-23T10:30:22.617Z,97.10
2022-08-23T10:32:56.074Z,96.50
2022-08-23T10:35:30.448Z,96.10
2022-08-23T10:38:17.588Z,93.50
2022-08-23T10:41:09.039Z,92.10
2022-08-23T10:43:54.388Z,93.00
2022-08-23T10:46:22.431Z,93.70
2022-08-23T10:48:51.348Z,94.20
2022-08-23T10:51:32.002Z,91.10
2022-08-23T10:54:34.515Z,87.80
2022-08-23T10:57:03.387Z,91.70
2022-08-23T10:59:30.820Z,91.80
2022-08-23T11:02:22.230Z,90.70
2022-08-23T11:05:19.882Z,91.80
2022-08-23T11:08:11.361Z,91.60
2022-08-23T11:10:39.721Z,91.70
2022-08-23T11:13:13.971Z,93.60
2022-08-23T11:16:06.982Z,93.80
2022-08-23T11:18:34.432Z,93.30
2022-08-23T11:21:09.887Z,91.60
2022-08-23T11:23:58.367Z,91.60
2022-08-23T11:26:27.329Z,91.40
2022-08-23T11:28:56.345Z,90.90
2022-08-23T11:31:31.634Z,90.70
2022-08-23T11:34:03.726Z,89.90
2022-08-23T11:36:31.965Z,87.10
2022-08-23T11:39:01.999Z,86.20
2022-08-23T11:41:33.946Z,81.70
2022-08-23T11:44:07.308Z,80.10
2022-08-23T11:46:55.750Z,79.80
2022-08-23T11:49:29.574Z,77.50
2022-08-23T11:52:16.276Z,76.50
2022-08-23T11:54:50.075Z,73.90
2022-08-23T11:57:48.496Z,75.70
2022-08-23T12:00:26.822Z,74.70
2022-08-23T12:03:24.812Z,76.10
2022-08-23T12:05:56.847Z,71.50
2022-08-23T12:08:33.235Z,73.00
2022-08-23T12:11:05.312Z,70.60
2022-08-23T12:13:52.666Z,70.00
2022-08-23T12:16:20.002Z,71.00
2022-08-23T12:18:50.637Z,72.10
2022-08-23T12:21:38.394Z,70.70
2022-08-23T12:24:35.552Z,73.60
2022-08-23T12:27:28.831Z,70.10
2022-08-23T12:30:09.115Z,72.00
2022-08-23T12:32:57.428Z,73.90
2022-08-23T12:35:39.687Z,71.90
2022-08-23T12:38:23.679Z,72.40
2022-08-23T12:40:54.634Z,68.90
2022-08-23T12:43:29.940Z,69.20
2022-08-23T12:46:00.908Z,71.80
2022-08-23T12:48:33.755Z,71.80
2022-08-23T12:51:03.455Z,69.50
2022-08-23T12:53:33.357Z,69.70
2022-08-23T12:56:03.773Z,66.20
2022-08-23T12:58:33.634Z,69.60
2022-08-23T13:01:08.303Z,69.20
2022-08-23T13:03:46.626Z,70.60
2022-08-23T13:06:24.560Z,72.10
2022-08-23T13:09:23.492Z,70.60
2022-08-23T13:11:58.260Z,70.60
2022-08-23T13:14:46.934Z,70.00
2022-08-23T13:17:36.631Z,69.30
2022-08-23T13:20:06.929Z,65.00
2022-08-23T13:22:37.689Z,67.10
2022-08-23T13:25:32.358Z,67.40
2022-08-23T13:28:02.677Z,67.20
2022-08-23T13:30:36.262Z,63.20
2022-08-23T13:33:11.505Z,66.60
2022-08-23T13:35:49.791Z,66.50
2022-08-23T13:38:39.715Z,66.20
2022-08-23T13:41:10.277Z,67.50
2022-08-23T13:43:47.228Z,64.70
2022-08-23T13:46:24.258Z,64.20
2022-08-23T13:49:11.553Z,64.40
2022-08-23T13:51:43.026Z,62.00
2022-08-23T13:54:14.377Z,63.70
2022-08-23T13:56:57.402Z,63.00
2022-08-23T13:59:32.500Z,64.00
2022-08-23T14:02:01.599Z,59.80
2022-08-23T14:04:29.105Z,59.70
2022-08-23T14:06:56.292Z,61.60
2022-08-23T14:09:23.479Z,61.00
2022-08-23T14:11:54.341Z,59.40
2022-08-23T14:14:21.551Z,59.90
2022-08-23T14:16:48.864Z,59.70
2022-08-23T14:19:19.233Z,57.90
2022-08-23T14:22:04.039Z,58.00
2022-08-23T14:24:31.278Z,58.80
2022-08-23T14:26:58.500Z,56.70
2022-08-23T14:29:27.860Z,59.20
2022-08-23T14:31:55.278Z,59.70
2022-08-23T14:34:22.525Z,59.70
2022-08-23T14:39:37.080Z,57.20
2022-08-23T14:42:05.294Z,58.40
2022-08-23T14:44:35.973Z,57.30
2022-08-23T14:47:05.205Z,55.10
2022-08-23T14:49:32.841Z,54.20
2022-08-23T14:52:00.176Z,55.00
2022-08-23T14:54:27.507Z,56.10
2022-08-23T14:56:54.764Z,58.90
2022-08-23T14:59:22.131Z,58.10
2022-08-23T15:01:50.842Z,57.30
2022-08-23T15:04:20.395Z,56.00
2022-08-23T15:07:14.091Z,56.50
2022-08-23T15:09:34.901Z,59.20
2022-08-23T15:14:50.623Z,60.00
2022-08-23T15:17:17.790Z,60.70
2022-08-23T15:19:44.941Z,60.20
2022-08-23T15:22:18.859Z,61.20
2022-08-23T15:24:49.783Z,59.70
2022-08-23T15:27:18.472Z,60.80
2022-08-23T15:29:45.877Z,59.80
2022-08-23T15:32:13.167Z,58.40
2022-08-23T15:34:46.430Z,59.70
2022-08-23T15:37:13.967Z,59.60
2022-08-23T15:39:42.406Z,60.10
2022-08-23T15:42:10.021Z,60.90
2022-08-23T15:44:37.441Z,59.40
2022-08-23T15:47:05.675Z,60.20
2022-08-23T15:49:36.193Z,61.70
2022-08-23T15:52:04.650Z,62.20
2022-08-23T15:54:32.187Z,63.30
2022-08-23T15:56:59.906Z,65.30
2022-08-23T15:59:38.066Z,64.00
2022-08-23T16:02:07.953Z,61.60
2022-08-23T16:04:36.798Z,61.50
2022-08-23T16:07:05.532Z,61.70
2022-08-23T16:09:33.653Z,61.50
2022-08-23T16:12:01.871Z,59.80
2022-08-23T16:14:31.364Z,59.50
2022-08-23T16:17:07.074Z,59.50
2022-08-23T16:19:34.761Z,60.40
2022-08-23T16:22:05.426Z,59.90
2022-08-23T16:24:32.799Z,61.10
2022-08-23T16:27:01.187Z,62.00
2022-08-23T16:29:33.243Z,63.40
2022-08-23T16:32:00.947Z,63.70
2022-08-23T16:34:28.308Z,63.20
2022-08-23T16:36:57.761Z,61.60
2022-08-23T16:39:26.164Z,62.00
2022-08-23T16:41:53.364Z,64.50
2022-08-23T16:44:20.678Z,65.10
2022-08-23T16:46:47.989Z,65.90
2022-08-23T16:49:16.066Z,65.60
2022-08-23T16:51:43.264Z,65.80
2022-08-23T16:54:10.587Z,65.30
2022-08-23T16:56:38.658Z,66.00
2022-08-23T16:59:07.169Z,66.00
2022-08-23T17:01:58.300Z,65.90
2022-08-23T17:04:26.958Z,66.10
2022-08-23T17:06:58.180Z,66.30
2022-08-23T17:09:26.582Z,67.60
2022-08-23T17:11:53.858Z,67.30
2022-08-23T17:14:21.146Z,67.30
2022-08-23T17:16:48.438Z,68.00
2022-08-23T17:19:15.663Z,68.20
2022-08-23T17:21:42.972Z,68.10
2022-08-23T17:24:10.143Z,68.40
2022-08-23T17:26:37.675Z,68.50
2022-08-23T17:29:05.072Z,68.90
2022-08-23T17:31:32.314Z,69.40
2022-08-23T17:34:03.279Z,70.00
2022-08-23T17:36:38.376Z,70.30
2022-08-23T17:39:08.591Z,71.20
2022-08-23T17:41:36.034Z,71.20
2022-08-23T17:44:04.402Z,70.80
2022-08-23T17:46:34.660Z,71.10
2022-08-23T17:49:01.929Z,71.40
2022-08-23T17:51:29.167Z,71.60
2022-08-23T17:53:56.594Z,71.80
2022-08-23T17:56:24.561Z,72.10
2022-08-23T17:58:54.976Z,72.20
2022-08-23T18:01:22.244Z,72.40
2022-08-23T18:03:49.955Z,72.60
2022-08-23T18:06:17.550Z,73.00
2022-08-23T18:08:45.306Z,73.10
2022-08-23T18:11:13.899Z,73.20
2022-08-23T18:13:41.244Z,73.40
2022-08-23T18:16:08.482Z,73.70
2022-08-23T18:18:35.702Z,74.00
2022-08-23T18:21:07.606Z,74.40
2022-08-23T18:23:34.978Z,74.50
2022-08-23T18:26:06.926Z,74.70
2022-08-23T18:28:34.370Z,75.10
2022-08-23T18:31:03.610Z,76.30
2022-08-23T18:33:47.188Z,75.70
2022-08-23T18:36:15.519Z,76.10
2022-08-23T18:38:42.693Z,76.60
2022-08-23T18:41:09.889Z,77.10
2022-08-23T18:43:37.397Z,77.30
2022-08-23T18:46:05.236Z,77.70
2022-08-23T18:48:32.667Z,78.20
2022-08-23T18:51:00.146Z,78.80
2022-08-23T18:53:27.396Z,79.50
2022-08-23T18:55:54.634Z,80.10
2022-08-23T18:58:22.913Z,80.40
2022-08-23T19:00:51.430Z,80.50
2022-08-23T19:03:18.803Z,80.90
2022-08-23T19:05:45.975Z,81.30
2022-08-23T19:08:13.339Z,81.80
2022-08-23T19:10:41.560Z,82.10
2022-08-23T19:13:09.523Z,82.50
2022-08-23T19:15:37.133Z,82.90
2022-08-23T19:18:04.560Z,83.20
2022-08-23T19:20:32.312Z,83.80
2022-08-23T19:22:59.600Z,84.40
2022-08-23T19:25:27.114Z,85.20
2022-08-23T19:27:54.724Z,85.60
2022-08-23T19:30:22.693Z,85.60
2022-08-23T19:32:50.215Z,85.80
2022-08-23T19:35:17.771Z,85.90
2022-08-23T19:37:44.932Z,86.30
2022-08-23T19:40:13.802Z,87.20
2022-08-23T19:42:41.082Z,87.80
2022-08-23T19:45:08.762Z,88.00
2022-08-23T19:47:36.016Z,88.00
2022-08-23T19:50:04.678Z,88.10
2022-08-23T19:52:32.203Z,89.10
2022-08-23T19:55:05.169Z,90.00
2022-08-23T19:57:33.855Z,90.10
2022-08-23T20:00:01.815Z,90.20
2022-08-23T20:02:32.789Z,90.40
2022-08-23T20:05:00.134Z,91.00
2022-08-23T20:07:27.321Z,91.00
2022-08-23T20:09:55.250Z,91.30
2022-08-23T20:12:22.509Z,91.60
2022-08-23T20:14:49.673Z,91.80
2022-08-23T20:17:17.203Z,91.90
2022-08-23T20:19:44.413Z,92.10
2022-08-23T20:22:30.117Z,92.30
2022-08-23T20:24:57.961Z,92.60
2022-08-23T20:27:31.072Z,92.70
2022-08-23T20:30:01.882Z,92.80
2022-08-23T20:32:29.430Z,93.00
2022-08-23T20:34:57.046Z,93.30
2022-08-23T20:37:24.245Z,93.60
2022-08-23T20:39:52.302Z,93.80
2022-08-23T20:42:19.544Z,94.00
2022-08-23T20:44:46.736Z,94.10
2022-08-23T20:47:13.938Z,94.20
2022-08-23T20:49:41.118Z,94.40
2022-08-23T20:52:08.405Z,94.60
2022-08-23T20:54:35.907Z,94.80
2022-08-23T20:57:03.229Z,95.00
2022-08-23T20:59:30.579Z,95.10
2022-08-23T21:01:58.995Z,95.30
2022-08-23T21:04:30.274Z,95.50
2022-08-23T21:06:57.835Z,95.80
2022-08-23T21:09:29.443Z,96.10
2022-08-23T21:11:57.022Z,96.60
2022-08-23T21:14:24.260Z,97.20
2022-08-23T21:16:51.474Z,97.40
2022-08-23T21:19:19.010Z,97.50
2022-08-23T21:21:46.284Z,97.50
2022-08-23T21:24:13.538Z,97.90
2022-08-23T21:26:40.829Z,97.80
2022-08-23T21:29:08.798Z,98.10
2022-08-23T21:31:36.172Z,98.30
2022-08-23T21:34:03.776Z,98.40
2022-08-23T21:36:30.964Z,98.60
2022-08-23T21:38:58.138Z,98.80
2022-08-23T21:41:42.578Z,99.00
2022-08-23T21:44:12.092Z,99.00
2022-08-23T21:46:39.616Z,99.30
2022-08-23T21:49:06.935Z,99.40
2022-08-23T21:51:34.988Z,99.50
2022-08-23T21:54:03.011Z,99.70
2022-08-23T21:56:31.048Z,99.90
2022-08-23T21:59:02.165Z,99.90
2022-08-23T22:01:30.666Z,99.90
2022-08-23T22:03:57.873Z,99.90
2022-08-23T22:06:25.181Z,99.90
2022-08-23T22:08:52.360Z,99.90
2022-08-23T22:11:19.814Z,99.90
2022-08-23T22:13:47.384Z,99.90
2022-08-23T22:16:14.619Z,99.90
2022-08-23T22:18:42.748Z,99.90
2022-08-23T22:21:10.068Z,99.90
2022-08-23T22:23:41.855Z,99.90
2022-08-23T22:26:09.162Z,99.90
2022-08-23T22:28:36.448Z,99.90
2022-08-23T22:31:05.214Z,99.90
2022-08-23T22:33:32.672Z,99.90
2022-08-23T22:36:14.302Z,99.90
2022-08-23T22:38:41.510Z,99.90
2022-08-23T22:41:08.749Z,99.90
2022-08-23T22:43:35.920Z,99.90
2022-08-23T22:46:04.454Z,99.90
2022-08-23T22:48:32.544Z,99.90
2022-08-23T22:51:07.345Z,99.90
2022-08-23T22:53:35.684Z,99.90
2022-08-23T22:56:03.806Z,99.90
2022-08-23T22:58:30.978Z,99.90
2022-08-23T23:00:58.224Z,99.90
2022-08-23T23:03:25.563Z,99.90
2022-08-23T23:05:52.822Z,99.90
2022-08-23T23:08:28.994Z,99.90
2022-08-23T23:11:00.895Z,99.90
2022-08-23T23:13:29.349Z,99.90
2022-08-23T23:15:56.788Z,99.90
2022-08-23T23:18:24.667Z,99.90
2022-08-23T23:20:52.274Z,99.90
2022-08-23T23:23:21.562Z,99.90
2022-08-23T23:25:49.074Z,99.90
2022-08-23T23:28:16.804Z,99.90
2022-08-23T23:30:45.411Z,99.90
2022-08-23T23:33:12.871Z,99.90
2022-08-23T23:35:40.206Z,99.90
2022-08-23T23:38:07.562Z,99.90
2022-08-23T23:40:34.838Z,99.90
2022-08-23T23:43:02.057Z,99.90
2022-08-23T23:45:29.881Z,99.90
2022-08-23T23:47:57.187Z,99.90
2022-08-23T23:50:24.624Z,99.90
2022-08-23T23:52:51.816Z,99.90
2022-08-23T23:55:20.089Z,99.90
2022-08-23T23:57:47.251Z,99.90
